Time;durP1;ratioP1;P1;durP2;ratioP2;P2;SDS_P1;SDS_P2;PMS_P1;PMS_P2;Temp;Humidity;BMP_temperature;BMP_pressure;BME280_temperature;BME280_humidity;BME280_pressure;Samples;Min_cycle;Max_cycle;Signal;HPM_P1;HPM_P2
2022/03/11 00:01:23;;;;;;;10.10;3.60;;;;;-5.00;98722.60;;;;110856;1247;42493;-65
2022/03/11 00:03:55;;;;;;;9.30;3.70;;;;;-5.00;98719.40;;;;110915;1249;41974;-66
2022/03/11 00:06:25;;;;;;;10.90;3.90;;;;;-5.02;98719.20;;;;110871;1247;41266;-64
2022/03/11 00:08:55;;;;;;;8.70;3.60;;;;;-5.10;98716.80;;;;111137;1247;41154;-65
2022/03/11 00:11:25;;;;;;;10.80;3.50;;;;;-5.10;98718.20;;;;111070;1248;41148;-63
2022/03/11 00:13:56;;;;;;;8.40;3.50;;;;;-5.10;98724.40;;;;111067;1248;41154;-63
2022/03/11 00:16:26;;;;;;;8.90;3.70;;;;;-5.20;98727.80;;;;111068;1247;41929;-63
2022/03/11 00:18:55;;;;;;;8.20;4.10;;;;;-5.20;98722.40;;;;111106;1248;41252;-63
2022/03/11 00:21:25;;;;;;;10.40;4.10;;;;;-5.20;98724.60;;;;111008;1247;41154;-65
2022/03/11 00:23:55;;;;;;;9.50;3.90;;;;;-5.30;98717.40;;;;111053;1248;41258;-65
2022/03/11 00:26:26;;;;;;;9.60;4.10;;;;;-5.30;98721.80;;;;111089;1247;41594;-64
2022/03/11 00:28:56;;;;;;;10.20;3.70;;;;;-5.34;98724.00;;;;110755;1250;41142;-64
2022/03/11 00:31:28;;;;;;;10.00;4.00;;;;;-5.40;98728.40;;;;110757;1249;41260;-65
2022/03/11 00:33:59;;;;;;;9.00;3.70;;;;;-5.40;98726.80;;;;110977;1250;41160;-64
2022/03/11 00:36:28;;;;;;;8.80;3.70;;;;;-5.46;98724.80;;;;111039;1247;41235;-65
2022/03/11 00:38:58;;;;;;;9.10;3.90;;;;;-5.50;98718.80;;;;111123;1247;41152;-65
2022/03/11 00:41:28;;;;;;;11.30;3.70;;;;;-5.50;98720.60;;;;110923;1250;41731;-65
2022/03/11 00:43:58;;;;;;;9.90;3.80;;;;;-5.60;98718.40;;;;111123;1247;41252;-64
2022/03/11 00:46:28;;;;;;;9.40;3.80;;;;;-5.60;98720.80;;;;111086;1247;41607;-63
2022/03/11 00:48:58;;;;;;;9.90;3.50;;;;;-5.70;98721.20;;;;110880;1248;41820;-64
2022/03/11 00:51:28;;;;;;;9.40;3.80;;;;;-5.70;98715.40;;;;110726;1247;41250;-65
2022/03/11 00:53:57;;;;;;;9.10;3.60;;;;;-5.80;98719.60;;;;110818;1248;41365;-63
2022/03/11 00:56:29;;;;;;;8.60;3.30;;;;;-5.88;98721.40;;;;111145;1247;41146;-64
2022/03/11 00:59:00;;;;;;;8.80;3.30;;;;;-5.90;98716.80;;;;110937;1249;41133;-65
2022/03/11 01:01:30;;;;;;;8.20;3.30;;;;;-6.00;98716.20;;;;111113;1247;41301;-64
2022/03/11 01:04:00;;;;;;;8.00;3.40;;;;;-6.00;98717.80;;;;110944;1250;42012;-63
2022/03/11 01:06:31;;;;;;;9.10;3.40;;;;;-6.08;98716.40;;;;110892;1248;41240;-63
2022/03/11 01:09:02;;;;;;;7.90;2.80;;;;;-6.10;98718.80;;;;111026;1248;41145;-64
2022/03/11 01:11:32;;;;;;;7.50;3.30;;;;;-6.18;98717.40;;;;110844;1250;41168;-65
2022/03/11 01:14:01;;;;;;;9.70;3.10;;;;;-6.20;98716.80;;;;111072;1248;41289;-65
2022/03/11 01:16:32;;;;;;;7.70;2.80;;;;;-6.20;98721.00;;;;111073;1247;41202;-66
2022/03/11 01:19:02;;;;;;;7.50;3.00;;;;;-6.28;98717.40;;;;111116;1247;41143;-65
2022/03/11 01:21:32;;;;;;;7.40;3.20;;;;;-6.30;98715.40;;;;111162;1247;41833;-64
2022/03/11 01:24:02;;;;;;;8.20;3.20;;;;;-6.30;98720.00;;;;111200;1247;42369;-64
2022/03/11 01:26:32;;;;;;;7.50;3.20;;;;;-6.30;98713.80;;;;110955;1250;41905;-64
2022/03/11 01:29:02;;;;;;;8.70;3.60;;;;;-6.30;98721.40;;;;111112;1249;41131;-64
2022/03/11 01:31:32;;;;;;;8.00;3.30;;;;;-6.30;98721.60;;;;111105;1248;41245;-65
2022/03/11 01:34:03;;;;;;;7.00;3.20;;;;;-6.40;98724.00;;;;110877;1250;41165;-65
2022/03/11 01:36:33;;;;;;;8.30;3.50;;;;;-6.40;98727.40;;;;110999;1250;41270;-65
2022/03/11 01:39:03;;;;;;;7.90;3.60;;;;;-6.40;98731.00;;;;111058;1247;41582;-65
2022/03/11 01:41:33;;;;;;;8.70;3.80;;;;;-6.50;98727.00;;;;110835;1249;41148;-65
2022/03/11 01:44:06;;;;;;;;;;;;;-6.50;98733.40;;;;110682;1250;41714;-64
2022/03/11 01:46:37;;;;;;;7.50;3.10;;;;;-6.52;98734.80;;;;110891;1249;42381;-64
2022/03/11 01:49:09;;;;;;;7.70;3.10;;;;;-6.60;98730.00;;;;110915;1247;41704;-64
2022/03/11 01:51:41;;;;;;;8.40;3.10;;;;;-6.60;98720.80;;;;111083;1248;41145;-64
2022/03/11 01:54:12;;;;;;;7.50;3.50;;;;;-6.60;98722.80;;;;110866;1250;41550;-64
2022/03/11 01:56:43;;;;;;;10.30;4.50;;;;;-6.60;98719.00;;;;110986;1248;41190;-63
2022/03/11 01:59:12;;;;;;;14.00;5.20;;;;;-6.60;98714.40;;;;110843;1249;41262;-63
2022/03/11 02:01:43;;;;;;;10.50;4.30;;;;;-6.60;98713.60;;;;111096;1247;41370;-64
2022/03/11 02:04:13;;;;;;;;;;;;;-6.60;98714.20;;;;110613;1249;42548;-62
2022/03/11 02:06:45;;;;;;;9.70;4.10;;;;;-6.70;98718.40;;;;110878;1249;41151;-64
2022/03/11 02:09:15;;;;;;;8.70;3.90;;;;;-6.80;98725.00;;;;110676;1251;41267;-64
2022/03/11 02:11:46;;;;;;;9.60;3.50;;;;;-6.90;98717.80;;;;110841;1250;41429;-67
2022/03/11 02:14:18;;;;;;;8.00;3.40;;;;;-6.94;98710.20;;;;110846;1250;41402;-64
2022/03/11 02:16:48;;;;;;;7.70;3.60;;;;;-7.00;98708.80;;;;110894;1250;41173;-64
2022/03/11 02:19:19;;;;;;;8.80;3.90;;;;;-7.00;98711.20;;;;110791;1250;41735;-63
2022/03/11 02:21:50;;;;;;;9.40;4.20;;;;;-7.00;98709.40;;;;110911;1247;42356;-65
2022/03/11 02:24:22;;;;;;;10.60;4.20;;;;;-6.90;98706.60;;;;111104;1247;41157;-64
2022/03/11 02:26:52;;;;;;;11.00;4.40;;;;;-6.90;98706.60;;;;111089;1247;41163;-64
2022/03/11 02:29:23;;;;;;;9.00;3.70;;;;;-7.00;98715.40;;;;110865;1249;42175;-64
2022/03/11 02:31:53;;;;;;;9.20;3.80;;;;;-7.06;98712.00;;;;111046;1248;42316;-64
2022/03/11 02:34:23;;;;;;;9.00;4.00;;;;;-7.10;98715.00;;;;111095;1247;41930;-66
2022/03/11 02:36:53;;;;;;;8.80;3.80;;;;;-7.14;98717.20;;;;110959;1250;41157;-64
2022/03/11 02:39:23;;;;;;;8.90;3.30;;;;;-7.20;98716.00;;;;110809;1250;41161;-64
2022/03/11 02:41:54;;;;;;;8.20;3.40;;;;;-7.20;98712.60;;;;110968;1247;41834;-66
2022/03/11 02:44:25;;;;;;;8.70;3.40;;;;;-7.30;98713.00;;;;110968;1249;42714;-64
2022/03/11 02:46:56;;;;;;;9.50;3.50;;;;;-7.30;98712.00;;;;110943;1250;41937;-64
2022/03/11 02:49:27;;;;;;;7.60;3.40;;;;;-7.30;98710.40;;;;111069;1247;41609;-63
2022/03/11 02:51:58;;;;;;;12.30;5.10;;;;;-7.36;98712.20;;;;110740;1249;41266;-64
2022/03/11 02:54:28;;;;;;;14.90;5.60;;;;;-7.44;98715.60;;;;111044;1247;42278;-64
2022/03/11 02:56:59;;;;;;;11.60;4.90;;;;;-7.60;98723.00;;;;110442;1248;537603;-65
2022/03/11 02:59:29;;;;;;;11.10;4.40;;;;;-7.60;98722.00;;;;110862;1250;42322;-64
2022/03/11 03:02:01;;;;;;;11.90;4.50;;;;;-7.70;98730.40;;;;111069;1247;41500;-64
2022/03/11 03:04:32;;;;;;;9.40;3.70;;;;;-7.70;98731.60;;;;110891;1248;40703;-65
2022/03/11 03:07:02;;;;;;;9.60;4.00;;;;;-7.74;98730.60;;;;111121;1247;41927;-65
2022/03/11 03:09:32;;;;;;;11.70;4.10;;;;;-7.76;98732.60;;;;111114;1247;41129;-64
2022/03/11 03:12:03;;;;;;;10.00;4.20;;;;;-7.80;98732.80;;;;110738;1249;41365;-63
2022/03/11 03:14:33;;;;;;;8.80;3.70;;;;;-7.80;98729.80;;;;111087;1247;41130;-64
2022/03/11 03:17:05;;;;;;;9.10;3.80;;;;;-7.80;98730.60;;;;110652;1248;41971;-64
2022/03/11 03:19:35;;;;;;;;;;;;;-7.80;98732.40;;;;110679;1250;41857;-65
2022/03/11 03:22:06;;;;;;;8.50;3.40;;;;;-7.80;98732.00;;;;110929;1249;41128;-65
2022/03/11 03:24:36;;;;;;;9.40;3.60;;;;;-7.80;98728.40;;;;110833;1250;42105;-65
2022/03/11 03:27:06;;;;;;;;;;;;;-7.80;98731.80;;;;110672;1251;41713;-64
2022/03/11 03:29:36;;;;;;;11.20;3.60;;;;;-7.80;98730.00;;;;111037;1247;41142;-64
2022/03/11 03:32:07;;;;;;;10.30;4.20;;;;;-7.72;98729.80;;;;110632;1250;41237;-64
2022/03/11 03:34:38;;;;;;;11.30;4.60;;;;;-7.70;98727.40;;;;110921;1248;41611;-64
2022/03/11 03:37:10;;;;;;;9.50;4.50;;;;;-7.60;98732.00;;;;111016;1248;42245;-64
2022/03/11 03:39:41;;;;;;;9.80;4.20;;;;;-7.60;98735.80;;;;110876;1248;42372;-64
2022/03/11 03:42:12;;;;;;;10.20;4.10;;;;;-7.60;98747.00;;;;110993;1249;41517;-64
2022/03/11 03:44:42;;;;;;;;;;;;;-7.66;98746.20;;;;110845;1250;41221;-64
2022/03/11 03:47:12;;;;;;;9.20;3.90;;;;;-7.70;98746.60;;;;111049;1247;41150;-65
2022/03/11 03:49:43;;;;;;;11.20;4.30;;;;;-7.70;98742.00;;;;110787;1249;41259;-65
2022/03/11 03:52:13;;;;;;;11.50;4.50;;;;;-7.70;98743.80;;;;110996;1248;41600;-63
2022/03/11 03:54:44;;;;;;;8.60;4.10;;;;;-7.70;98744.60;;;;111064;1247;41120;-63
2022/03/11 03:57:14;;;;;;;9.30;4.20;;;;;-7.70;98749.20;;;;110979;1248;42371;-65
2022/03/11 03:59:44;;;;;;;10.90;4.10;;;;;-7.70;98745.60;;;;111095;1247;41152;-64
2022/03/11 04:02:14;;;;;;;11.90;4.20;;;;;-7.80;98749.60;;;;110896;1248;41974;-64
2022/03/11 04:04:44;;;;;;;10.00;3.80;;;;;-7.90;98748.80;;;;110958;1250;41897;-65
2022/03/11 04:07:13;;;;;;;8.30;3.40;;;;;-7.90;98753.60;;;;110874;1250;41260;-63
2022/03/11 04:09:45;;;;;;;8.80;4.00;;;;;-8.00;98758.60;;;;110874;1249;42474;-65
2022/03/11 04:12:15;;;;;;;10.50;4.40;;;;;-8.00;98754.80;;;;110942;1248;41135;-65
2022/03/11 04:14:45;;;;;;;9.80;4.00;;;;;-8.10;98748.40;;;;110932;1250;41134;-63
2022/03/11 04:17:14;;;;;;;10.20;3.90;;;;;-8.20;98756.80;;;;110704;1250;41631;-63
2022/03/11 04:19:44;;;;;;;9.20;3.90;;;;;-8.20;98753.00;;;;111010;1247;41124;-64
2022/03/11 04:22:14;;;;;;;10.60;3.70;;;;;-8.20;98752.00;;;;111081;1248;41538;-63
2022/03/11 04:24:44;;;;;;;8.80;4.10;;;;;-8.26;98753.00;;;;111070;1247;41243;-61
2022/03/11 04:27:14;;;;;;;11.30;4.90;;;;;-8.30;98754.80;;;;111058;1247;41123;-62
2022/03/11 04:29:44;;;;;;;11.70;5.20;;;;;-8.30;98757.60;;;;111089;1247;41228;-64
2022/03/11 04:32:13;;;;;;;14.20;6.00;;;;;-8.30;98760.80;;;;110811;1250;41271;-64
2022/03/11 04:34:44;;;;;;;14.40;5.70;;;;;-8.30;98755.00;;;;110985;1247;41265;-64
2022/03/11 04:37:14;;;;;;;13.70;5.60;;;;;-8.40;98749.40;;;;110948;1248;41153;-64
2022/03/11 04:39:43;;;;;;;13.00;5.40;;;;;-8.40;98754.40;;;;110931;1247;41155;-64
2022/03/11 04:42:12;;;;;;;11.10;5.80;;;;;-8.40;98755.00;;;;110878;1249;41144;-64
2022/03/11 04:44:42;;;;;;;12.10;5.50;;;;;-8.40;98752.80;;;;110638;1250;41966;-63
2022/03/11 04:47:11;;;;;;;12.60;5.60;;;;;-8.40;98757.40;;;;110985;1248;41180;-64
2022/03/11 04:49:41;;;;;;;12.00;5.30;;;;;-8.48;98747.80;;;;110838;1250;41133;-64
2022/03/11 04:52:11;;;;;;;12.50;5.20;;;;;-8.50;98750.40;;;;110687;1250;41144;-63
2022/03/11 04:54:41;;;;;;;14.90;6.20;;;;;-8.50;98756.20;;;;110806;1250;41195;-64
2022/03/11 04:57:10;;;;;;;12.20;5.80;;;;;-8.50;98757.00;;;;110989;1247;41715;-64
2022/03/11 04:59:40;;;;;;;11.40;5.50;;;;;-8.60;98754.80;;;;110934;1249;41156;-63
2022/03/11 05:02:09;;;;;;;15.60;6.40;;;;;-8.60;98760.20;;;;111065;1247;41145;-64
2022/03/11 05:04:38;;;;;;;17.80;8.70;;;;;-8.60;98763.80;;;;111136;1247;41477;-64
2022/03/11 05:07:08;;;;;;;22.80;8.60;;;;;-8.50;98764.40;;;;110957;1250;41942;-64
2022/03/11 05:09:37;;;;;;;22.80;10.10;;;;;-8.38;98768.80;;;;111095;1247;41195;-64
2022/03/11 05:12:07;;;;;;;21.50;8.80;;;;;-8.30;98770.80;;;;111046;1246;41746;-63
2022/03/11 05:14:37;;;;;;;17.80;7.60;;;;;-8.20;98772.20;;;;110936;1247;41619;-63
2022/03/11 05:17:06;;;;;;;20.80;7.60;;;;;-8.02;98767.40;;;;111042;1247;41152;-65
2022/03/11 05:19:36;;;;;;;18.60;7.80;;;;;-7.90;98766.60;;;;111009;1249;41149;-66
2022/03/11 05:22:06;;;;;;;18.30;7.20;;;;;-7.80;98768.40;;;;111111;1247;41149;-64
2022/03/11 05:24:36;;;;;;;21.70;7.00;;;;;-7.70;98766.80;;;;110848;1250;41353;-64
2022/03/11 05:27:06;;;;;;;15.80;7.20;;;;;-7.50;98770.20;;;;110798;1249;41733;-64
2022/03/11 05:29:35;;;;;;;;;;;;;-7.40;98771.00;;;;110828;1247;42284;-64
2022/03/11 05:32:05;;;;;;;18.70;7.10;;;;;-7.30;98763.80;;;;110984;1248;42224;-65
2022/03/11 05:34:39;;;;;;;15.90;7.10;;;;;-7.10;98765.00;;;;111120;1247;41367;-64
2022/03/11 05:37:10;;;;;;;17.40;7.40;;;;;-6.98;98765.40;;;;111001;1247;41609;-63
2022/03/11 05:39:39;;;;;;;;;;;;;-6.80;98767.20;;;;110767;1248;41623;-64
2022/03/11 05:42:09;;;;;;;18.40;7.90;;;;;-6.74;98770.00;;;;111106;1246;41710;-62
2022/03/11 05:44:38;;;;;;;16.80;7.90;;;;;-6.60;98765.20;;;;111062;1247;42055;-62
2022/03/11 05:47:09;;;;;;;17.10;7.10;;;;;-6.50;98769.00;;;;110969;1248;41178;-63
2022/03/11 05:49:38;;;;;;;;;;;;;-6.30;98763.00;;;;110926;1249;41898;-63
2022/03/11 05:52:07;;;;;;;12.20;5.40;;;;;-6.10;98764.00;;;;110997;1248;41121;-63
2022/03/11 05:54:36;;;;;;;19.30;6.10;;;;;-5.90;98763.40;;;;110884;1248;41154;-63
2022/03/11 05:57:10;;;;;;;14.70;6.90;;;;;-5.70;98762.80;;;;111074;1248;41185;-62
2022/03/11 05:59:40;;;;;;;15.80;6.30;;;;;-5.60;98753.80;;;;111061;1247;42018;-63
2022/03/11 06:02:09;;;;;;;13.20;6.10;;;;;-5.40;98758.00;;;;111033;1247;42241;-62
2022/03/11 06:04:38;;;;;;;18.00;7.10;;;;;-5.20;98753.60;;;;111105;1247;41617;-63
2022/03/11 06:07:08;;;;;;;21.50;7.90;;;;;-5.00;98750.40;;;;111040;1247;41271;-63
2022/03/11 06:09:37;;;;;;;15.60;7.70;;;;;-4.80;98748.60;;;;111133;1247;41143;-64
2022/03/11 06:12:07;;;;;;;20.30;7.80;;;;;-4.60;98751.60;;;;111082;1245;41161;-64
2022/03/11 06:14:37;;;;;;;19.60;8.00;;;;;-4.40;98750.00;;;;111035;1247;41211;-63
2022/03/11 06:17:06;;;;;;;16.30;8.00;;;;;-4.24;98745.00;;;;110822;1250;41136;-63
2022/03/11 06:19:35;;;;;;;16.90;8.50;;;;;-4.00;98741.60;;;;110876;1247;41124;-63
2022/03/11 06:22:05;;;;;;;22.10;7.90;;;;;-3.84;98732.40;;;;110759;1250;41782;-63
2022/03/11 06:24:37;;;;;;;20.30;7.00;;;;;-3.80;98734.00;;;;110809;1249;41167;-64
2022/03/11 06:27:06;;;;;;;21.40;8.00;;;;;-3.62;98733.20;;;;111057;1247;41193;-63
2022/03/11 06:29:36;;;;;;;15.70;6.40;;;;;-3.40;98732.40;;;;110989;1247;41156;-64
2022/03/11 06:32:06;;;;;;;13.70;5.90;;;;;-3.20;98728.60;;;;110815;1248;41146;-62
2022/03/11 06:34:37;;;;;;;18.10;8.30;;;;;-3.08;98723.60;;;;110976;1248;41147;-63
2022/03/11 06:37:06;;;;;;;12.40;5.90;;;;;-3.20;98723.40;;;;111116;1248;41444;-62
2022/03/11 06:39:35;;;;;;;10.10;4.60;;;;;-3.12;98725.20;;;;110836;1250;42647;-62
2022/03/11 06:42:04;;;;;;;10.50;4.10;;;;;-2.94;98718.00;;;;110804;1247;41830;-63
2022/03/11 06:44:34;;;;;;;11.00;4.30;;;;;-2.80;98722.60;;;;111120;1248;41558;-63
2022/03/11 06:47:04;;;;;;;8.30;3.90;;;;;-2.60;98719.00;;;;111041;1247;41175;-63
2022/03/11 06:49:39;;;;;;;10.40;3.70;;;;;-2.40;98716.40;;;;110970;1247;41857;-63
2022/03/11 06:52:08;;;;;;;8.40;3.70;;;;;-2.20;98716.20;;;;110998;1249;41133;-62
2022/03/11 06:54:38;;;;;;;8.90;3.90;;;;;-2.06;98709.20;;;;110794;1247;41156;-62
2022/03/11 06:57:08;;;;;;;9.60;4.00;;;;;-2.00;98713.40;;;;111083;1248;41130;-64
2022/03/11 06:59:40;;;;;;;10.10;3.90;;;;;-1.72;98711.60;;;;110862;1250;41270;-64
2022/03/11 07:02:09;;;;;;;11.00;4.30;;;;;-1.40;98705.00;;;;110888;1250;41861;-63
2022/03/11 07:04:38;;;;;;;12.70;4.70;;;;;-1.20;98700.00;;;;111034;1247;42083;-65
2022/03/11 07:07:08;;;;;;;8.60;3.80;;;;;-1.10;98695.00;;;;111104;1248;41135;-63
2022/03/11 07:09:38;;;;;;;8.60;3.40;;;;;-0.90;98697.20;;;;110900;1247;41152;-63
2022/03/11 07:12:07;;;;;;;8.00;2.90;;;;;-0.66;98696.00;;;;110868;1249;41246;-64
2022/03/11 07:14:36;;;;;;;7.80;3.10;;;;;-0.40;98693.40;;;;111201;1245;41627;-63
2022/03/11 07:17:06;;;;;;;8.80;3.40;;;;;-0.20;98691.80;;;;111016;1247;41144;-64
2022/03/11 07:19:36;;;;;;;9.00;3.40;;;;;0.10;98688.00;;;;111075;1247;42138;-63
2022/03/11 07:22:05;;;;;;;9.20;3.60;;;;;-0.04;98691.40;;;;110790;1248;41255;-64
2022/03/11 07:24:34;;;;;;;9.70;4.20;;;;;0.00;98684.40;;;;111051;1247;42046;-64
2022/03/11 07:27:03;;;;;;;9.20;4.00;;;;;-0.12;98689.80;;;;110806;1249;41145;-64
2022/03/11 07:29:33;;;;;;;11.50;4.50;;;;;0.00;98685.40;;;;110812;1248;41729;-64
2022/03/11 07:32:03;;;;;;;12.00;4.30;;;;;0.28;98685.80;;;;110915;1247;41261;-61
2022/03/11 07:34:32;;;;;;;11.30;3.90;;;;;0.50;98681.80;;;;111112;1247;41135;-63
2022/03/11 07:37:02;;;;;;;13.20;4.60;;;;;0.80;98672.60;;;;110933;1247;42381;-61
2022/03/11 07:39:31;;;;;;;12.00;4.30;;;;;1.10;98672.20;;;;110966;1248;41235;-61
2022/03/11 07:42:00;;;;;;;10.00;4.40;;;;;1.30;98671.00;;;;110993;1247;41196;-62
2022/03/11 07:44:30;;;;;;;11.00;4.80;;;;;1.50;98670.20;;;;110837;1250;41269;-64
2022/03/11 07:46:59;;;;;;;16.30;5.00;;;;;1.70;98672.00;;;;110845;1249;41130;-64
2022/03/11 07:49:29;;;;;;;11.60;5.40;;;;;1.70;98660.60;;;;110713;1249;41255;-65
2022/03/11 07:51:58;;;;;;;11.30;5.20;;;;;1.90;98662.40;;;;110738;1249;41254;-62
2022/03/11 07:54:28;;;;;;;11.50;4.80;;;;;2.06;98654.00;;;;110974;1248;41300;-66
2022/03/11 07:56:58;;;;;;;11.30;4.30;;;;;2.30;98652.80;;;;110985;1248;41160;-63
2022/03/11 07:59:31;;;;;;;10.40;4.30;;;;;2.42;98650.20;;;;110922;1250;41152;-63
2022/03/11 08:02:01;;;;;;;11.50;4.90;;;;;2.44;98644.40;;;;110808;1248;41524;-62
2022/03/11 08:04:30;;;;;;;11.20;4.40;;;;;2.46;98649.40;;;;111042;1247;41237;-63
2022/03/11 08:07:06;;;;;;;11.20;4.00;;;;;2.70;98643.80;;;;110923;1249;42387;-63
2022/03/11 08:09:35;;;;;;;11.60;4.30;;;;;2.90;98636.80;;;;111111;1247;41126;-62
2022/03/11 08:12:06;;;;;;;10.50;4.50;;;;;3.18;98639.40;;;;110788;1250;41943;-63
2022/03/11 08:14:35;;;;;;;10.30;4.20;;;;;3.20;98638.40;;;;111039;1248;41152;-63
2022/03/11 08:17:05;;;;;;;10.60;4.00;;;;;3.40;98636.60;;;;111093;1247;41897;-64
2022/03/11 08:19:34;;;;;;;8.30;3.30;;;;;3.30;98624.00;;;;110914;1249;42147;-65
2022/03/11 08:22:03;;;;;;;9.10;3.80;;;;;3.12;98625.40;;;;110889;1248;41962;-65
2022/03/11 08:24:32;;;;;;;11.40;4.00;;;;;2.98;98624.00;;;;110777;1247;41715;-64
2022/03/11 08:27:03;;;;;;;9.50;3.50;;;;;3.06;98623.60;;;;110963;1248;41637;-63
2022/03/11 08:29:34;;;;;;;10.90;4.50;;;;;3.40;98617.40;;;;110792;1250;41154;-63
2022/03/11 08:32:05;;;;;;;13.30;3.50;;;;;2.94;98616.80;;;;111127;1248;41259;-63
2022/03/11 08:34:34;;;;;;;11.90;3.80;;;;;3.00;98607.40;;;;111042;1247;41545;-63
2022/03/11 08:37:24;;;;;;;7.70;3.00;;;;;2.88;98601.60;;;;111132;1247;41360;-62
2022/03/11 08:39:54;;;;;;;7.90;2.90;;;;;3.10;98604.40;;;;110926;1247;41733;-65
2022/03/11 08:42:25;;;;;;;7.70;3.10;;;;;3.56;98601.20;;;;110990;1248;42508;-66
2022/03/11 08:44:54;;;;;;;7.20;3.00;;;;;3.94;98592.00;;;;110936;1247;41149;-66
2022/03/11 08:47:23;;;;;;;7.40;2.50;;;;;3.98;98597.60;;;;110960;1247;41638;-63
2022/03/11 08:49:53;;;;;;;8.40;3.10;;;;;4.72;98580.80;;;;110873;1250;41132;-64
2022/03/11 08:52:25;;;;;;;7.20;2.80;;;;;6.18;98559.00;;;;111091;1247;42267;-63
2022/03/11 08:54:57;;;;;;;7.00;2.70;;;;;9.20;98543.40;;;;111170;1247;41148;-66
2022/03/11 08:57:27;;;;;;;7.60;2.70;;;;;12.38;98534.40;;;;111128;1248;41521;-63
2022/03/11 09:00:00;;;;;;;8.10;3.10;;;;;14.70;98521.40;;;;110936;1249;41466;-64
2022/03/11 09:02:30;;;;;;;7.70;2.90;;;;;9.00;98537.40;;;;111085;1247;41202;-62
2022/03/11 09:04:59;;;;;;;6.60;2.60;;;;;12.72;98521.60;;;;111098;1247;40706;-63
2022/03/11 09:07:29;;;;;;;15.50;2.80;;;;;15.82;98508.20;;;;110816;1247;41146;-63
2022/03/11 09:10:04;;;;;;;7.30;2.80;;;;;16.84;98499.20;;;;111070;1247;40775;-64
2022/03/11 09:12:34;;;;;;;5.60;2.10;;;;;17.76;98487.60;;;;110967;1247;41205;-63
2022/03/11 09:15:05;;;;;;;7.30;2.60;;;;;19.40;98485.00;;;;110807;1248;41169;-64
2022/03/11 09:17:34;;;;;;;6.10;2.30;;;;;20.32;98483.60;;;;111136;1247;41254;-64
2022/03/11 09:20:06;;;;;;;5.50;2.40;;;;;22.04;98485.20;;;;110984;1249;41175;-64
2022/03/11 09:22:42;;;;;;;8.40;2.90;;;;;22.26;98481.20;;;;111018;1248;41304;-63
2022/03/11 09:25:12;;;;;;;6.90;2.50;;;;;22.32;98472.60;;;;111073;1247;41142;-64
2022/03/11 09:27:42;;;;;;;;;;;;;23.58;98467.80;;;;111025;1247;41248;-65
2022/03/11 09:30:11;;;;;;;6.60;2.30;;;;;25.38;98469.00;;;;111065;1247;43803;-63
2022/03/11 09:32:41;;;;;;;6.70;2.40;;;;;26.02;98456.00;;;;111074;1247;41154;-64
2022/03/11 09:35:13;;;;;;;6.10;2.20;;;;;26.74;98453.20;;;;110866;1248;41165;-64
2022/03/11 09:37:42;;;;;;;7.90;2.30;;;;;26.34;98455.20;;;;110945;1248;41740;-64
2022/03/11 09:40:12;;;;;;;5.90;2.20;;;;;27.44;98453.40;;;;111072;1247;41929;-62
2022/03/11 09:42:42;;;;;;;;;;;;;28.58;98447.80;;;;110863;1249;41161;-65
2022/03/11 09:45:12;;;;;;;6.40;2.40;;;;;30.00;98446.80;;;;110914;1248;41883;-64
2022/03/11 09:47:42;;;;;;;6.30;2.40;;;;;30.96;98437.60;;;;111022;1248;41152;-64
2022/03/11 09:50:12;;;;;;;;;;;;;29.80;98434.40;;;;110785;1247;41961;-64
2022/03/11 09:52:42;;;;;;;5.30;2.20;;;;;28.62;98442.80;;;;111138;1247;41653;-63
2022/03/11 09:55:14;;;;;;;6.60;2.50;;;;;28.80;98430.80;;;;110953;1248;41485;-72
2022/03/11 09:57:43;;;;;;;6.00;2.40;;;;;27.74;98439.40;;;;111037;1249;41249;-65
2022/03/11 10:00:14;;;;;;;7.20;2.60;;;;;28.78;98434.00;;;;111103;1247;42642;-65
2022/03/11 10:02:44;;;;;;;6.30;2.40;;;;;29.42;98430.20;;;;110983;1248;41267;-66
2022/03/11 10:05:16;;;;;;;7.90;2.60;;;;;30.48;98428.00;;;;110988;1247;41130;-63
2022/03/11 10:08:05;;;;;;;4.90;2.20;;;;;29.88;98434.60;;;;110756;1249;41143;-65
2022/03/11 10:10:35;;;;;;;6.70;2.60;;;;;31.44;98426.60;;;;110847;1247;41148;-66
2022/03/11 10:13:10;;;;;;;7.00;2.80;;;;;33.02;98428.20;;;;110881;1248;41127;-67
2022/03/11 10:15:40;;;;;;;7.50;3.00;;;;;34.10;98424.40;;;;110972;1248;41334;-66
2022/03/11 10:18:15;;;;;;;6.20;2.40;;;;;32.84;98429.40;;;;110832;1250;41624;-63
2022/03/11 10:20:45;;;;;;;7.00;2.60;;;;;32.50;98420.60;;;;111130;1247;41165;-65
2022/03/11 10:23:17;;;;;;;7.50;2.60;;;;;30.62;98425.40;;;;111031;1247;41667;-64
2022/03/11 10:26:00;;;;;;;6.60;2.50;;;;;27.74;98424.20;;;;110956;1248;41607;-64
2022/03/11 10:28:29;;;;;;;7.70;3.00;;;;;27.20;98428.20;;;;111083;1247;41151;-65
2022/03/11 10:31:09;;;;;;;9.30;2.90;;;;;28.58;98424.40;;;;110999;1248;41202;-65
2022/03/11 10:33:38;;;;;;;6.20;2.50;;;;;28.72;98419.20;;;;110924;1249;41171;-66
2022/03/11 10:36:11;;;;;;;7.30;2.60;;;;;30.12;98416.00;;;;111079;1249;41586;-65
2022/03/11 10:38:46;;;;;;;7.10;2.70;;;;;31.08;98410.60;;;;111097;1247;41362;-63
2022/03/11 10:41:17;;;;;;;6.90;2.90;;;;;32.54;98410.60;;;;111069;1247;41936;-66
2022/03/11 10:43:47;;;;;;;7.50;2.70;;;;;29.50;98414.40;;;;111091;1247;41170;-68
2022/03/11 10:46:17;;;;;;;6.50;2.50;;;;;30.22;98415.60;;;;110774;1250;41155;-65
2022/03/11 10:48:52;;;;;;;7.90;2.90;;;;;31.94;98405.80;;;;110858;1247;41139;-72
2022/03/11 10:51:33;;;;;;;7.50;2.50;;;;;32.70;98408.80;;;;111011;1247;41371;-69
2022/03/11 10:54:06;;;;;;;7.40;2.90;;;;;31.44;98407.00;;;;111001;1248;41511;-64
2022/03/11 10:56:39;;;;;;;6.30;2.40;;;;;25.42;98409.20;;;;111142;1247;41171;-68
2022/03/11 10:59:14;;;;;;;7.00;2.60;;;;;29.56;98405.60;;;;111080;1248;41136;-64
2022/03/11 11:01:44;;;;;;;7.50;3.00;;;;;29.50;98401.20;;;;110764;1249;41376;-61
2022/03/11 11:04:15;;;;;;;7.30;2.80;;;;;26.44;98406.20;;;;110910;1248;41133;-65
2022/03/11 11:06:45;;;;;;;5.40;2.20;;;;;28.64;98400.20;;;;111015;1248;41200;-65
2022/03/11 11:09:17;;;;;;;7.30;2.80;;;;;30.72;98403.20;;;;110979;1248;41145;-63
2022/03/11 11:11:46;;;;;;;7.10;2.80;;;;;32.74;98399.40;;;;111076;1248;41939;-64
2022/03/11 11:14:15;;;;;;;7.60;2.50;;;;;33.52;98394.20;;;;111089;1247;41300;-65
2022/03/11 11:16:56;;;;;;;7.20;2.70;;;;;33.58;98387.40;;;;110924;1249;41152;-64
2022/03/11 11:19:37;;;;;;;5.80;2.60;;;;;34.68;98383.60;;;;110891;1249;42472;-64
2022/03/11 11:22:32;;;;;;;7.50;3.10;;;;;33.24;98386.60;;;;111048;1248;41933;-65
2022/03/11 11:25:25;;;;;;;8.10;2.90;;;;;29.88;98391.80;;;;110887;1249;41175;-68
2022/03/11 11:28:16;;;;;;;5.80;2.40;;;;;31.84;98387.80;;;;110815;1250;41205;-63
2022/03/11 11:31:05;;;;;;;7.60;3.30;;;;;33.68;98371.00;;;;110981;1249;41617;-70
2022/03/11 11:33:51;;;;;;;6.90;2.80;;;;;32.20;98375.60;;;;110937;1247;41260;-66
2022/03/11 11:36:43;;;;;;;;;;;;;33.20;98375.40;;;;111080;1247;41129;-64
2022/03/11 11:39:47;;;;;;;8.90;3.30;;;;;34.18;98361.40;;;;111038;1248;41244;-66
2022/03/11 11:42:28;;;;;;;7.00;2.80;;;;;34.30;98356.40;;;;110842;1249;42434;-70
2022/03/11 11:45:17;;;;;;;10.70;3.40;;;;;33.50;98360.80;;;;110811;1250;41407;-62
2022/03/11 11:48:33;;;;;;;9.20;3.00;;;;;30.96;98360.40;;;;111020;1249;41933;-66
2022/03/11 11:51:21;;;;;;;8.50;3.10;;;;;31.00;98368.00;;;;111086;1247;41136;-64
2022/03/11 11:54:12;;;;;;;7.50;3.00;;;;;33.08;98359.40;;;;111116;1247;41147;-68
2022/03/11 11:57:00;;;;;;;8.60;3.10;;;;;34.90;98349.60;;;;110960;1247;41139;-66
2022/03/11 11:59:43;;;;;;;8.00;3.30;;;;;35.08;98343.60;;;;111110;1247;41249;-69
2022/03/11 12:02:31;;;;;;;7.70;3.20;;;;;35.94;98338.00;;;;110948;1250;42832;-73
2022/03/11 12:05:46;;;;;;;7.10;3.00;;;;;36.40;98329.80;;;;111092;1247;41354;-65
2022/03/11 12:08:40;;;;;;;9.30;3.30;;;;;37.76;98326.00;;;;111102;1248;41152;-67
2022/03/11 12:11:45;;;;;;;9.40;3.40;;;;;36.44;98333.00;;;;111029;1248;41694;-67
2022/03/11 12:15:01;;;;;;;7.10;3.20;;;;;29.70;98320.00;;;;111194;1249;41287;-66
2022/03/11 12:17:45;;;;;;;8.70;3.90;;;;;29.76;98317.20;;;;111124;1247;41158;-66
2022/03/11 12:20:38;;;;;;;10.10;3.90;;;;;29.36;98322.40;;;;111147;1248;41998;-65
2022/03/11 12:23:19;;;;;;;8.80;3.70;;;;;26.48;98325.20;;;;111111;1247;41386;-71
2022/03/11 12:26:09;;;;;;;12.20;3.90;;;;;29.66;98322.20;;;;111007;1248;41280;-70
2022/03/11 12:29:07;;;;;;;9.90;3.40;;;;;30.86;98311.40;;;;110926;1249;41830;-63
2022/03/11 12:31:44;;;;;;;8.30;3.60;;;;;30.00;98316.00;;;;111053;1247;41264;-66
2022/03/11 12:34:20;;;;;;;8.20;3.50;;;;;29.92;98310.00;;;;111115;1247;41153;-66